MMZH/ZIH METAR and TAF weather

Enter ICAO airport designator
Station Type Date Time Source
MMZH METAR 2019/10/14 02:45 UTC NOAA

MMZH 140245Z 00000KT 7SM SCT020 SCT090 BKN250 29/25 A2984 RMK SLP096 52010 9// 8/432 HZY


Station Type Date Time Source
MMZH Decoded METAR 2019/10/14 02:45 UTC NOAA

Ixtapa-Zihuatanejo, Mexico (MMZH) 17-36N 101-28W
Oct 13, 2019 - 10:45 PM EDT / 2019.10.14 0245 UTC
Wind: Calm:0
Visibility: 7 mile(s):0
Sky conditions: mostly cloudy
Temperature: 84 F (29 C)
Dew Point: 77 F (25 C)
Relative Humidity: 79%
Pressure (altimeter): 29.84 in. Hg (1010 hPa)
Pressure tendency: 0.03 inches (1.0 hPa) higher than three hours ago
ob: MMZH 140245Z 00000KT 7SM SCT020 SCT090 BKN250 29/25 A2984 RMK SLP096 52010 9// 8/432 HZY
cycle: 3

Station Type Date Time Source
MMZH TAF 2019/10/14 06:29 UTC NOAA

TAF MMZH 140422Z 1406/1506 00000KT 6SM HZ SCT090 SCT250
FM141800 23010KT P6SM SCT020 SCT250
TEMPO 1422/1502 6SM -RA SCT020CB

Example: see airport list